createdAt,value
2019-05-07T00:00:43.847Z,0.00
2019-05-07T00:01:42.774Z,0.00
2019-05-07T00:02:42.892Z,0.00
2019-05-07T00:03:42.738Z,0.00
2019-05-07T00:04:42.954Z,0.00
2019-05-07T00:05:42.905Z,0.00
2019-05-07T00:06:43.455Z,0.00
2019-05-07T00:07:42.729Z,0.00
2019-05-07T00:08:44.894Z,0.00
2019-05-07T00:09:43.164Z,0.00
2019-05-07T00:10:42.687Z,0.00
2019-05-07T00:11:42.764Z,0.00
2019-05-07T00:12:43.166Z,0.00
2019-05-07T00:13:44.520Z,0.00
2019-05-07T00:14:44.361Z,0.00
2019-05-07T00:15:43.729Z,0.00
2019-05-07T00:16:42.600Z,0.00
2019-05-07T00:17:42.944Z,0.00
2019-05-07T00:18:43.027Z,0.00
2019-05-07T00:19:43.178Z,0.00
2019-05-07T00:20:42.568Z,0.00
2019-05-07T00:21:42.545Z,0.00
2019-05-07T00:22:42.528Z,0.00
2019-05-07T00:23:43.315Z,0.00
2019-05-07T00:24:42.808Z,0.00
2019-05-07T00:25:42.535Z,0.00
2019-05-07T00:26:43.189Z,0.00
2019-05-07T00:27:42.751Z,0.00
2019-05-07T00:28:43.233Z,0.00
2019-05-07T00:29:43.020Z,0.00
2019-05-07T00:30:42.681Z,0.00
2019-05-07T00:31:42.459Z,0.00
2019-05-07T00:32:42.498Z,0.00
2019-05-07T00:33:43.218Z,0.00
2019-05-07T00:34:42.581Z,0.00
2019-05-07T00:35:42.957Z,0.00
2019-05-07T00:36:42.376Z,0.00
2019-05-07T00:37:43.123Z,0.00
2019-05-07T00:38:42.800Z,0.00
2019-05-07T00:39:42.502Z,0.00
2019-05-07T00:40:42.654Z,0.00
2019-05-07T00:41:42.793Z,0.00
2019-05-07T00:42:42.315Z,0.00
2019-05-07T00:43:42.862Z,0.00
2019-05-07T00:44:42.304Z,0.00
2019-05-07T00:45:42.295Z,0.00
2019-05-07T00:46:42.782Z,0.00
2019-05-07T00:47:42.651Z,0.00
2019-05-07T00:48:42.389Z,0.00
2019-05-07T00:49:42.613Z,0.00
2019-05-07T00:50:42.224Z,0.00
2019-05-07T00:51:42.483Z,0.00
2019-05-07T00:52:43.019Z,0.00
2019-05-07T00:53:42.442Z,0.00
2019-05-07T00:54:42.343Z,0.00
2019-05-07T00:55:42.373Z,0.00
2019-05-07T00:56:42.858Z,0.00
2019-05-07T00:57:42.879Z,0.00
2019-05-07T00:58:42.846Z,0.00
2019-05-07T00:59:42.930Z,0.00
2019-05-07T01:00:42.248Z,0.00
2019-05-07T01:01:43.261Z,0.00
2019-05-07T01:02:43.118Z,0.00
2019-05-07T01:03:42.490Z,0.00
2019-05-07T01:04:42.336Z,0.00
2019-05-07T01:05:43.232Z,0.00
2019-05-07T01:06:42.478Z,0.00
2019-05-07T01:07:42.104Z,0.00
2019-05-07T01:08:43.006Z,0.00
2019-05-07T01:09:43.033Z,0.00
2019-05-07T01:10:42.135Z,0.00
2019-05-07T01:11:42.918Z,0.00
2019-05-07T01:12:42.420Z,0.00
2019-05-07T01:13:43.122Z,0.00
2019-05-07T01:14:42.104Z,0.00
2019-05-07T01:15:43.027Z,0.00
2019-05-07T01:16:42.226Z,0.00
2019-05-07T01:17:42.554Z,0.00
2019-05-07T01:18:42.204Z,0.00
2019-05-07T01:19:42.371Z,0.00
2019-05-07T01:20:42.461Z,0.00
2019-05-07T01:21:43.216Z,0.00
2019-05-07T01:22:42.414Z,0.00
2019-05-07T01:23:42.758Z,0.00
2019-05-07T01:24:42.933Z,0.00
2019-05-07T01:25:43.047Z,0.00
2019-05-07T01:26:42.587Z,0.00
2019-05-07T01:27:42.670Z,0.00
2019-05-07T01:28:42.189Z,0.00
2019-05-07T01:29:43.032Z,0.00
2019-05-07T01:30:43.194Z,0.00
2019-05-07T01:31:43.094Z,0.00
2019-05-07T01:32:42.542Z,0.00
2019-05-07T01:33:42.352Z,0.00
2019-05-07T01:34:42.960Z,0.00
2019-05-07T01:35:42.327Z,0.00
2019-05-07T01:36:42.741Z,0.00
2019-05-07T01:37:42.241Z,0.00
2019-05-07T01:38:42.687Z,0.00
2019-05-07T01:39:42.231Z,0.00
2019-05-07T01:40:42.766Z,0.00
2019-05-07T01:41:42.059Z,0.00
2019-05-07T01:42:42.379Z,0.00
2019-05-07T01:43:42.918Z,0.00
2019-05-07T01:44:42.053Z,0.00
2019-05-07T01:45:46.402Z,0.00
2019-05-07T01:46:42.632Z,0.00
2019-05-07T01:47:42.509Z,0.00
2019-05-07T01:48:42.902Z,0.00
2019-05-07T01:49:42.219Z,0.00
2019-05-07T01:50:42.906Z,0.00
2019-05-07T01:51:42.279Z,0.00
2019-05-07T01:52:42.682Z,0.00
2019-05-07T01:53:43.042Z,0.00
2019-05-07T01:54:42.586Z,0.00
2019-05-07T01:55:42.771Z,0.00
2019-05-07T01:56:42.756Z,0.00
2019-05-07T01:57:42.094Z,0.00
2019-05-07T01:58:42.471Z,0.00
2019-05-07T01:59:42.759Z,0.00
2019-05-07T02:00:42.378Z,0.00
2019-05-07T02:01:42.929Z,0.00
2019-05-07T02:02:42.542Z,0.00
2019-05-07T02:03:42.002Z,0.00
2019-05-07T02:04:42.749Z,0.00
2019-05-07T02:05:42.400Z,0.00
2019-05-07T02:06:42.930Z,0.00
2019-05-07T02:07:42.917Z,0.00
2019-05-07T02:08:42.330Z,0.00
2019-05-07T02:09:42.508Z,0.00
2019-05-07T02:10:42.817Z,0.00
2019-05-07T02:11:42.240Z,0.00
2019-05-07T02:12:42.521Z,0.00
2019-05-07T02:13:41.986Z,0.00
2019-05-07T02:14:42.246Z,0.00
2019-05-07T02:15:42.811Z,0.00
2019-05-07T02:16:42.294Z,0.00
2019-05-07T02:17:42.970Z,0.00
2019-05-07T02:18:42.453Z,0.00
2019-05-07T02:19:42.470Z,0.00
2019-05-07T02:20:42.661Z,0.00
2019-05-07T02:21:42.306Z,0.00
2019-05-07T02:22:42.780Z,0.00
2019-05-07T02:23:42.629Z,0.00
2019-05-07T02:24:43.235Z,0.00
2019-05-07T02:25:42.010Z,0.00
2019-05-07T02:26:42.722Z,0.00
2019-05-07T02:27:42.061Z,0.00
2019-05-07T02:28:42.622Z,0.00
2019-05-07T02:29:42.925Z,0.00
2019-05-07T02:30:44.409Z,0.00
2019-05-07T02:31:44.247Z,0.00
2019-05-07T02:32:43.234Z,0.00
2019-05-07T02:33:43.472Z,0.00
2019-05-07T02:34:44.276Z,0.00
2019-05-07T02:35:43.889Z,0.00
2019-05-07T02:36:43.374Z,0.00
2019-05-07T02:37:48.529Z,0.00
2019-05-07T02:38:44.227Z,0.00
2019-05-07T02:39:44.010Z,0.00
2019-05-07T02:40:43.333Z,0.00
2019-05-07T02:41:43.733Z,0.00
2019-05-07T02:42:44.060Z,0.00
2019-05-07T02:43:43.025Z,0.00
2019-05-07T02:44:43.800Z,0.00
2019-05-07T02:45:43.788Z,0.00
2019-05-07T02:46:43.422Z,0.00
2019-05-07T02:47:43.528Z,0.00
2019-05-07T02:48:42.910Z,0.00
2019-05-07T02:49:43.589Z,0.00
2019-05-07T02:50:43.484Z,0.00
2019-05-07T02:51:43.592Z,0.00
2019-05-07T02:52:43.737Z,0.00
2019-05-07T02:53:43.058Z,0.00
2019-05-07T02:54:43.550Z,0.00
2019-05-07T02:55:43.454Z,0.00
2019-05-07T02:56:43.215Z,0.00
2019-05-07T02:57:43.471Z,0.00
2019-05-07T02:58:43.343Z,0.00
2019-05-07T02:59:43.882Z,0.00
2019-05-07T03:00:43.458Z,0.00
2019-05-07T03:01:43.243Z,0.00
2019-05-07T03:02:43.580Z,0.00
2019-05-07T03:03:47.788Z,0.00
2019-05-07T03:04:43.400Z,0.00
2019-05-07T03:05:43.239Z,0.00
2019-05-07T03:06:43.986Z,0.00
2019-05-07T03:07:42.723Z,0.00
2019-05-07T03:08:43.731Z,0.00
2019-05-07T03:09:43.211Z,0.00
2019-05-07T03:10:43.298Z,0.00
2019-05-07T03:11:43.252Z,0.00
2019-05-07T03:12:42.974Z,0.00
2019-05-07T03:13:43.252Z,0.00
2019-05-07T03:14:43.545Z,4.00
2019-05-07T03:15:43.211Z,4.00
2019-05-07T03:16:47.557Z,0.00
2019-05-07T03:17:42.944Z,0.00
2019-05-07T03:18:43.536Z,4.00
2019-05-07T03:19:43.036Z,4.00
2019-05-07T03:20:43.008Z,4.00
2019-05-07T03:21:43.993Z,4.00
2019-05-07T03:22:42.852Z,8.00
2019-05-07T03:23:42.963Z,8.00
2019-05-07T03:24:43.111Z,8.00
2019-05-07T03:25:43.167Z,8.00
2019-05-07T03:26:43.363Z,12.00
2019-05-07T03:27:43.126Z,12.00
2019-05-07T03:28:42.752Z,16.00
2019-05-07T03:29:43.940Z,16.00
2019-05-07T03:30:45.075Z,20.00
2019-05-07T03:31:46.124Z,24.00
2019-05-07T03:32:46.783Z,28.00
2019-05-07T03:33:46.446Z,32.00
2019-05-07T03:34:46.685Z,36.00
2019-05-07T03:35:46.187Z,40.00
2019-05-07T03:36:46.602Z,48.00
2019-05-07T03:37:44.167Z,52.00
2019-05-07T03:38:40.428Z,60.00
2019-05-07T03:39:42.968Z,64.00
2019-05-07T03:40:40.413Z,72.00
2019-05-07T03:41:43.241Z,84.00
2019-05-07T03:42:40.345Z,96.00
2019-05-07T03:43:43.193Z,104.00
2019-05-07T03:44:40.325Z,116.00
2019-05-07T03:45:42.993Z,124.00
2019-05-07T03:46:54.674Z,140.00
2019-05-07T03:47:43.875Z,152.00
2019-05-07T03:48:40.309Z,168.00
2019-05-07T03:49:42.979Z,180.00
2019-05-07T03:50:42.858Z,196.00
2019-05-07T03:51:43.942Z,216.00
2019-05-07T03:52:42.914Z,232.00
2019-05-07T03:53:43.187Z,248.00
2019-05-07T03:54:42.861Z,268.00
2019-05-07T03:55:40.281Z,288.00
2019-05-07T03:56:42.906Z,316.00
2019-05-07T03:57:43.280Z,336.00
2019-05-07T03:58:42.877Z,356.00
2019-05-07T03:59:42.917Z,380.00
2019-05-07T04:00:40.191Z,408.00
2019-05-07T04:01:43.061Z,432.00
2019-05-07T04:02:40.132Z,456.00
2019-05-07T04:03:40.164Z,484.00
2019-05-07T04:04:43.031Z,508.00
2019-05-07T04:05:43.051Z,536.00
2019-05-07T04:06:43.203Z,564.00
2019-05-07T04:07:42.729Z,596.00
2019-05-07T04:08:42.868Z,624.00
2019-05-07T04:09:40.061Z,652.00
2019-05-07T04:10:40.043Z,688.00
2019-05-07T04:11:43.068Z,712.00
2019-05-07T04:12:40.078Z,744.00
2019-05-07T04:13:40.023Z,772.00
2019-05-07T04:14:42.898Z,804.00
2019-05-07T04:15:43.504Z,832.00
2019-05-07T04:16:40.030Z,864.00
2019-05-07T04:17:42.840Z,896.00
2019-05-07T04:18:40.040Z,924.00
2019-05-07T04:19:39.981Z,956.00
2019-05-07T04:20:43.152Z,984.00
2019-05-07T04:21:39.927Z,1012.00
2019-05-07T04:22:42.873Z,1044.00
2019-05-07T04:23:39.921Z,1076.00
2019-05-07T04:24:42.675Z,1108.00
2019-05-07T04:25:39.876Z,1140.00
2019-05-07T04:26:42.807Z,1168.00
2019-05-07T04:27:44.113Z,1200.00
2019-05-07T04:28:43.398Z,1228.00
2019-05-07T04:29:42.602Z,1252.00
2019-05-07T04:30:39.840Z,1280.00
2019-05-07T04:31:42.998Z,1308.00
2019-05-07T04:32:43.184Z,1336.00
2019-05-07T04:33:39.792Z,1364.00
2019-05-07T04:34:40.346Z,1388.00
2019-05-07T04:35:43.107Z,1412.00
2019-05-07T04:36:39.760Z,1436.00
2019-05-07T04:37:42.548Z,1464.00
2019-05-07T04:38:39.747Z,1492.00
2019-05-07T04:39:42.321Z,1516.00
2019-05-07T04:40:39.735Z,1544.00
2019-05-07T04:41:39.698Z,1568.00
2019-05-07T04:42:42.595Z,1592.00
2019-05-07T04:43:39.758Z,1620.00
2019-05-07T04:44:39.697Z,1644.00
2019-05-07T04:45:39.661Z,1676.00
2019-05-07T04:46:43.750Z,1700.00
2019-05-07T04:47:46.411Z,1728.00
2019-05-07T04:48:43.553Z,1756.00
2019-05-07T04:49:39.645Z,1784.00
2019-05-07T04:50:44.411Z,1808.00
2019-05-07T04:51:43.259Z,1832.00
2019-05-07T04:52:39.577Z,1852.00
2019-05-07T04:53:42.654Z,1872.00
2019-05-07T04:54:39.610Z,1892.00
2019-05-07T04:55:42.846Z,1916.00
2019-05-07T04:56:39.542Z,1932.00
2019-05-07T04:57:39.525Z,1960.00
2019-05-07T04:58:39.555Z,1992.00
2019-05-07T04:59:42.530Z,2036.00
2019-05-07T05:00:39.495Z,2064.00
2019-05-07T05:01:39.616Z,2092.00
2019-05-07T05:02:39.476Z,2120.00
2019-05-07T05:03:39.602Z,2144.00
2019-05-07T05:04:39.476Z,2164.00
2019-05-07T05:05:39.495Z,2192.00
2019-05-07T05:06:39.433Z,2212.00
2019-05-07T05:07:39.444Z,2240.00
2019-05-07T05:08:39.587Z,2264.00
2019-05-07T05:09:39.404Z,2292.00
2019-05-07T05:10:39.445Z,2316.00
2019-05-07T05:11:39.373Z,2336.00
2019-05-07T05:12:39.425Z,2360.00
2019-05-07T05:13:39.354Z,2388.00
2019-05-07T05:14:39.342Z,2412.00
2019-05-07T05:15:39.392Z,2444.00
2019-05-07T05:16:39.334Z,2472.00
2019-05-07T05:17:49.621Z,2496.00
2019-05-07T05:18:42.005Z,2516.00
2019-05-07T05:19:39.309Z,2544.00
2019-05-07T05:20:39.402Z,2564.00
2019-05-07T05:21:39.270Z,2588.00
2019-05-07T05:22:39.261Z,2612.00
2019-05-07T05:23:39.240Z,2636.00
2019-05-07T05:24:39.513Z,2668.00
2019-05-07T05:25:39.242Z,2708.00
2019-05-07T05:26:41.789Z,2744.00
2019-05-07T05:27:39.327Z,2780.00
2019-05-07T05:28:39.187Z,2812.00
2019-05-07T05:29:39.181Z,2840.00
2019-05-07T05:30:39.172Z,2856.00
2019-05-07T05:31:39.170Z,2876.00
2019-05-07T05:32:39.182Z,2892.00
2019-05-07T05:33:39.139Z,2912.00
2019-05-07T05:34:39.142Z,2924.00
2019-05-07T05:35:39.128Z,2960.00
2019-05-07T05:36:39.125Z,2976.00
2019-05-07T05:37:39.173Z,3000.00
2019-05-07T05:38:39.079Z,3024.00
2019-05-07T05:39:39.144Z,3052.00
2019-05-07T05:40:39.063Z,3072.00
2019-05-07T05:41:39.083Z,3100.00
2019-05-07T05:42:39.029Z,3128.00
2019-05-07T05:43:39.019Z,3156.00
2019-05-07T05:44:39.018Z,3172.00
2019-05-07T05:45:38.998Z,3180.00
2019-05-07T05:46:39.031Z,3200.00
2019-05-07T05:47:42.111Z,3220.00
2019-05-07T05:48:42.335Z,3240.00
2019-05-07T05:49:39.123Z,3256.00
2019-05-07T05:50:38.948Z,3276.00
2019-05-07T05:51:38.978Z,3288.00
2019-05-07T05:52:38.958Z,3304.00
2019-05-07T05:53:38.984Z,3324.00
2019-05-07T05:54:38.908Z,3348.00
2019-05-07T05:55:38.933Z,3364.00
2019-05-07T05:56:38.980Z,3376.00
2019-05-07T05:57:38.907Z,3380.00
2019-05-07T05:58:38.879Z,3384.00
2019-05-07T05:59:49.237Z,3392.00
2019-05-07T06:00:42.163Z,3404.00
2019-05-07T06:01:38.898Z,3420.00
2019-05-07T06:02:38.860Z,3436.00
2019-05-07T06:03:38.808Z,3444.00
2019-05-07T06:04:38.813Z,3456.00
2019-05-07T06:05:38.849Z,3480.00
2019-05-07T06:06:38.774Z,3500.00
2019-05-07T06:07:38.888Z,3516.00
2019-05-07T06:08:39.203Z,3544.00
2019-05-07T06:09:38.747Z,3564.00
2019-05-07T06:10:38.840Z,3572.00
2019-05-07T06:11:38.734Z,3584.00
2019-05-07T06:12:38.726Z,3600.00
2019-05-07T06:13:38.717Z,3620.00
2019-05-07T06:14:38.721Z,3636.00
2019-05-07T06:15:38.689Z,3648.00
2019-05-07T06:16:38.666Z,3660.00
2019-05-07T06:17:38.660Z,3672.00
2019-05-07T06:18:38.676Z,3676.00
2019-05-07T06:19:38.676Z,3688.00
2019-05-07T06:20:38.628Z,3688.00
2019-05-07T06:21:38.606Z,3688.00
2019-05-07T06:22:38.597Z,3684.00
2019-05-07T06:23:38.593Z,3684.00
2019-05-07T06:24:38.636Z,3688.00
2019-05-07T06:25:38.568Z,3708.00
2019-05-07T06:26:38.584Z,3740.00
2019-05-07T06:27:38.546Z,3776.00
2019-05-07T06:28:38.536Z,3808.00
2019-05-07T06:29:38.685Z,3820.00
2019-05-07T06:30:38.526Z,3832.00
2019-05-07T06:31:38.544Z,3848.00
2019-05-07T06:32:38.495Z,3852.00
2019-05-07T06:33:38.527Z,3824.00
2019-05-07T06:34:44.255Z,3760.00
2019-05-07T06:35:38.659Z,3756.00
2019-05-07T06:36:38.458Z,3788.00
2019-05-07T06:37:38.485Z,3820.00
2019-05-07T06:38:38.442Z,3860.00
2019-05-07T06:39:38.451Z,3904.00
2019-05-07T06:40:38.444Z,3964.00
2019-05-07T06:41:38.394Z,4036.00
2019-05-07T06:42:38.401Z,4112.00
2019-05-07T06:43:38.377Z,4192.00
2019-05-07T06:44:38.355Z,4264.00
2019-05-07T06:45:38.364Z,4364.00
2019-05-07T06:46:38.830Z,4464.00
2019-05-07T06:47:38.537Z,4556.00
2019-05-07T06:48:42.654Z,4656.00
2019-05-07T06:49:39.293Z,4740.00
2019-05-07T06:50:38.446Z,4812.00
2019-05-07T06:51:38.352Z,4880.00
2019-05-07T06:52:38.632Z,4948.00
2019-05-07T06:53:38.273Z,5036.00
2019-05-07T06:54:38.344Z,5156.00
2019-05-07T06:55:38.237Z,5256.00
2019-05-07T06:56:38.296Z,5212.00
2019-05-07T06:57:38.275Z,5072.00
2019-05-07T06:58:38.215Z,4892.00
2019-05-07T06:59:38.265Z,4784.00
2019-05-07T07:00:38.256Z,4700.00
2019-05-07T07:01:38.184Z,4604.00
2019-05-07T07:02:38.196Z,4504.00
2019-05-07T07:03:38.172Z,4576.00
2019-05-07T07:04:38.157Z,4656.00
2019-05-07T07:05:38.190Z,4696.00
2019-05-07T07:06:38.123Z,4704.00
2019-05-07T07:07:38.124Z,4692.00
2019-05-07T07:08:38.108Z,4672.00
2019-05-07T07:09:38.093Z,4740.00
2019-05-07T07:10:38.083Z,4852.00
2019-05-07T07:11:38.073Z,4976.00
2019-05-07T07:12:38.083Z,5116.00
2019-05-07T07:13:38.042Z,5540.00
2019-05-07T07:14:38.050Z,5956.00
2019-05-07T07:15:38.151Z,6308.00
2019-05-07T07:16:38.061Z,6296.00
2019-05-07T07:17:37.993Z,6112.00
2019-05-07T07:18:51.279Z,5924.00
2019-05-07T07:19:38.986Z,5688.00
2019-05-07T07:20:37.973Z,5704.00
2019-05-07T07:21:37.955Z,5916.00
2019-05-07T07:22:37.950Z,6232.00
2019-05-07T07:23:37.941Z,6508.00
2019-05-07T07:24:37.981Z,6888.00
2019-05-07T07:25:37.931Z,7156.00
2019-05-07T07:26:38.711Z,7516.00
2019-05-07T07:27:37.885Z,7656.00
2019-05-07T07:28:37.881Z,7868.00
2019-05-07T07:29:37.861Z,8088.00
2019-05-07T07:30:37.871Z,8392.00
2019-05-07T07:31:37.925Z,8692.00
2019-05-07T07:32:37.831Z,8972.00
2019-05-07T07:33:37.820Z,9284.00
2019-05-07T07:34:37.800Z,8856.00
2019-05-07T07:35:38.341Z,8412.00
2019-05-07T07:36:37.914Z,8100.00
2019-05-07T07:37:37.783Z,7912.00
2019-05-07T07:38:37.762Z,8148.00
2019-05-07T07:39:37.760Z,8712.00
2019-05-07T07:40:37.761Z,9144.00
2019-05-07T07:41:37.750Z,9520.00
2019-05-07T07:42:37.749Z,9796.00
2019-05-07T07:43:37.751Z,9760.00
2019-05-07T07:44:37.692Z,9588.00
2019-05-07T07:45:37.689Z,9288.00
2019-05-07T07:46:37.712Z,8548.00
2019-05-07T07:47:37.691Z,8172.00
2019-05-07T07:48:37.658Z,7748.00
2019-05-07T07:49:37.661Z,7520.00
2019-05-07T07:50:37.633Z,7292.00
2019-05-07T07:51:41.715Z,7044.00
2019-05-07T07:52:38.641Z,6660.00
2019-05-07T07:53:37.622Z,6320.00
2019-05-07T07:54:37.590Z,6192.00
2019-05-07T07:55:37.672Z,6248.00
2019-05-07T07:56:49.157Z,6408.00
2019-05-07T07:57:38.588Z,6388.00
2019-05-07T07:58:37.580Z,6432.00
2019-05-07T07:59:37.564Z,6364.00
2019-05-07T08:00:37.698Z,6232.00
2019-05-07T08:01:37.509Z,6092.00
2019-05-07T08:02:37.502Z,5996.00
2019-05-07T08:03:37.508Z,6020.00
2019-05-07T08:04:37.510Z,6308.00
2019-05-07T08:05:37.489Z,6632.00
2019-05-07T08:06:37.450Z,6864.00
2019-05-07T08:07:37.471Z,6892.00
2019-05-07T08:08:37.434Z,6604.00
2019-05-07T08:09:37.463Z,6592.00
2019-05-07T08:10:37.451Z,6712.00
2019-05-07T08:11:37.505Z,6656.00
2019-05-07T08:12:37.466Z,6644.00
2019-05-07T08:13:44.928Z,6528.00
2019-05-07T08:14:37.364Z,6336.00
2019-05-07T08:15:37.374Z,6388.00
2019-05-07T08:16:37.732Z,6800.00
2019-05-07T08:17:37.353Z,7124.00
2019-05-07T08:18:37.346Z,7280.00
2019-05-07T08:19:37.353Z,7280.00
2019-05-07T08:20:40.032Z,7128.00
2019-05-07T08:21:37.490Z,7188.00
2019-05-07T08:22:37.315Z,7412.00
2019-05-07T08:23:48.502Z,7852.00
2019-05-07T08:24:37.252Z,8272.00
2019-05-07T08:25:37.242Z,8448.00
2019-05-07T08:26:37.242Z,8368.00
2019-05-07T08:27:37.211Z,8180.00
2019-05-07T08:28:37.269Z,8068.00
2019-05-07T08:29:37.221Z,7908.00
2019-05-07T08:30:37.198Z,7824.00
2019-05-07T08:31:37.181Z,7944.00
2019-05-07T08:32:37.160Z,8368.00
2019-05-07T08:33:37.246Z,8852.00
2019-05-07T08:34:37.161Z,9376.00
2019-05-07T08:35:37.137Z,9836.00
2019-05-07T08:36:37.120Z,9928.00
2019-05-07T08:37:37.111Z,9648.00
2019-05-07T08:38:37.121Z,9252.00
2019-05-07T08:39:37.094Z,8848.00
2019-05-07T08:40:37.116Z,8356.00
2019-05-07T08:41:37.083Z,7732.00
2019-05-07T08:42:37.074Z,7328.00
2019-05-07T08:43:37.051Z,7060.00
2019-05-07T08:44:37.112Z,7000.00
2019-05-07T08:45:37.101Z,7268.00
2019-05-07T08:46:37.021Z,7800.00
2019-05-07T08:47:37.001Z,7980.00
2019-05-07T08:48:37.058Z,7832.00
2019-05-07T08:49:40.088Z,7584.00
2019-05-07T08:50:37.996Z,7840.00
2019-05-07T08:51:36.960Z,7728.00
2019-05-07T08:52:36.946Z,6796.00
2019-05-07T08:53:36.951Z,6516.00
2019-05-07T08:54:36.952Z,6200.00
2019-05-07T08:55:36.934Z,6180.00
2019-05-07T08:56:36.922Z,6432.00
2019-05-07T08:57:36.919Z,6116.00
2019-05-07T08:58:36.880Z,6016.00
2019-05-07T08:59:36.893Z,5944.00
2019-05-07T09:00:36.850Z,5908.00
2019-05-07T09:01:36.859Z,5964.00
2019-05-07T09:02:36.908Z,6112.00
2019-05-07T09:03:36.851Z,6304.00
2019-05-07T09:04:46.571Z,6484.00
2019-05-07T09:05:36.814Z,6752.00
2019-05-07T09:06:36.789Z,6912.00
2019-05-07T09:07:36.778Z,6960.00
2019-05-07T09:08:36.769Z,7284.00
2019-05-07T09:09:36.771Z,7532.00
2019-05-07T09:10:36.799Z,7944.00
2019-05-07T09:11:36.741Z,8188.00
2019-05-07T09:12:38.159Z,8244.00
2019-05-07T09:13:36.739Z,8328.00
2019-05-07T09:14:36.708Z,8548.00
2019-05-07T09:15:36.718Z,8712.00
2019-05-07T09:16:36.695Z,8876.00
2019-05-07T09:17:36.703Z,8852.00
2019-05-07T09:18:36.659Z,8772.00
2019-05-07T09:19:50.392Z,8912.00
2019-05-07T09:20:37.655Z,9344.00
2019-05-07T09:21:36.639Z,9732.00
2019-05-07T09:22:36.617Z,10116.00
2019-05-07T09:23:36.605Z,10232.00
2019-05-07T09:24:36.599Z,10004.00
2019-05-07T09:25:36.704Z,9756.00
2019-05-07T09:26:36.568Z,9572.00
2019-05-07T09:27:36.574Z,9472.00
2019-05-07T09:28:36.557Z,9700.00
2019-05-07T09:29:36.567Z,10008.00
2019-05-07T09:30:36.540Z,10112.00
2019-05-07T09:31:36.517Z,10252.00
2019-05-07T09:32:36.517Z,10252.00
2019-05-07T09:33:36.517Z,10152.00
2019-05-07T09:34:36.499Z,10144.00
2019-05-07T09:35:39.534Z,10564.00
2019-05-07T09:36:36.476Z,10752.00
2019-05-07T09:37:36.467Z,11412.00
2019-05-07T09:38:36.442Z,11664.00
2019-05-07T09:39:36.448Z,11892.00
2019-05-07T09:40:36.431Z,11936.00
2019-05-07T09:41:36.429Z,11912.00
2019-05-07T09:42:36.399Z,11580.00
2019-05-07T09:43:36.381Z,11444.00
2019-05-07T09:44:36.374Z,11556.00
2019-05-07T09:45:36.367Z,12064.00
2019-05-07T09:46:36.377Z,12140.00
2019-05-07T09:47:36.353Z,11400.00
2019-05-07T09:48:36.334Z,10604.00
2019-05-07T09:49:36.321Z,10020.00
2019-05-07T09:50:36.319Z,9688.00
2019-05-07T09:51:36.335Z,9656.00
2019-05-07T09:52:36.278Z,9696.00
2019-05-07T09:53:36.276Z,9492.00
2019-05-07T09:54:36.268Z,9400.00
2019-05-07T09:55:36.277Z,9528.00
2019-05-07T09:56:36.260Z,9380.00
2019-05-07T09:57:36.238Z,9516.00
2019-05-07T09:58:39.065Z,9284.00
2019-05-07T09:59:36.204Z,9144.00
2019-05-07T10:00:36.227Z,9448.00
2019-05-07T10:01:36.268Z,9812.00
2019-05-07T10:02:36.196Z,9648.00
2019-05-07T10:03:36.168Z,9588.00
2019-05-07T10:04:36.157Z,9796.00
2019-05-07T10:05:36.159Z,10076.00
2019-05-07T10:06:36.146Z,10120.00
2019-05-07T10:07:36.126Z,9980.00
2019-05-07T10:08:36.146Z,9896.00
2019-05-07T10:09:36.120Z,9832.00
2019-05-07T10:10:36.083Z,9888.00
2019-05-07T10:11:36.106Z,9500.00
2019-05-07T10:12:36.167Z,8940.00
2019-05-07T10:13:36.046Z,8700.00
2019-05-07T10:14:36.044Z,8880.00
2019-05-07T10:15:36.039Z,8544.00
2019-05-07T10:16:36.066Z,8076.00
2019-05-07T10:17:36.005Z,7924.00
2019-05-07T10:18:36.017Z,8252.00
2019-05-07T10:19:36.005Z,8372.00
2019-05-07T10:20:35.976Z,8500.00
2019-05-07T10:21:36.014Z,8728.00
2019-05-07T10:22:36.012Z,8960.00
2019-05-07T10:23:35.940Z,9768.00
2019-05-07T10:24:35.935Z,9980.00
2019-05-07T10:25:35.915Z,10580.00
2019-05-07T10:26:36.043Z,11484.00
2019-05-07T10:27:35.917Z,12064.00
2019-05-07T10:28:35.894Z,11604.00
2019-05-07T10:29:35.894Z,11016.00
2019-05-07T10:30:35.875Z,10564.00
2019-05-07T10:31:35.881Z,10312.00
2019-05-07T10:32:35.876Z,10088.00
2019-05-07T10:33:35.895Z,9716.00
2019-05-07T10:34:35.838Z,9740.00
2019-05-07T10:35:35.806Z,9536.00
2019-05-07T10:36:36.314Z,9136.00
2019-05-07T10:37:35.795Z,8708.00
2019-05-07T10:38:35.774Z,8324.00
2019-05-07T10:39:35.775Z,8204.00
2019-05-07T10:40:35.787Z,8272.00
2019-05-07T10:41:35.795Z,8272.00
2019-05-07T10:42:35.774Z,8364.00
2019-05-07T10:43:35.804Z,7756.00
2019-05-07T10:44:35.722Z,7684.00
2019-05-07T10:45:35.705Z,8044.00
2019-05-07T10:46:35.683Z,8072.00
2019-05-07T10:47:35.857Z,7392.00
2019-05-07T10:48:35.665Z,7032.00
2019-05-07T10:49:35.646Z,7084.00
2019-05-07T10:50:39.180Z,7136.00
2019-05-07T10:51:35.626Z,7192.00
2019-05-07T10:52:35.650Z,7468.00
2019-05-07T10:53:35.694Z,7928.00
2019-05-07T10:54:35.604Z,7752.00
2019-05-07T10:55:35.585Z,7576.00
2019-05-07T10:56:35.597Z,7384.00
2019-05-07T10:57:35.658Z,7012.00
2019-05-07T10:58:35.577Z,6832.00
2019-05-07T10:59:35.562Z,6604.00
2019-05-07T11:00:35.545Z,6592.00
2019-05-07T11:01:35.580Z,6372.00
2019-05-07T11:02:35.533Z,6008.00
2019-05-07T11:03:35.602Z,5756.00
2019-05-07T11:04:42.641Z,5676.00
2019-05-07T11:05:36.539Z,6184.00
2019-05-07T11:06:35.482Z,6328.00
2019-05-07T11:07:35.523Z,6372.00
2019-05-07T11:08:35.467Z,6356.00
2019-05-07T11:09:35.435Z,6188.00
2019-05-07T11:10:35.431Z,6168.00
2019-05-07T11:11:35.427Z,6048.00
2019-05-07T11:12:35.435Z,6072.00
2019-05-07T11:13:35.406Z,6140.00
2019-05-07T11:14:35.424Z,5956.00
2019-05-07T11:15:35.391Z,5888.00
2019-05-07T11:16:35.389Z,5812.00
2019-05-07T11:17:35.566Z,5684.00
2019-05-07T11:18:35.375Z,5508.00
2019-05-07T11:19:35.345Z,5724.00
2019-05-07T11:20:46.520Z,5796.00
2019-05-07T11:21:36.438Z,5856.00
2019-05-07T11:22:35.292Z,5908.00
2019-05-07T11:23:35.291Z,5892.00
2019-05-07T11:24:35.305Z,5904.00
2019-05-07T11:25:35.263Z,6100.00
2019-05-07T11:26:35.298Z,6288.00
2019-05-07T11:27:35.245Z,6476.00
2019-05-07T11:28:35.263Z,6504.00
2019-05-07T11:29:36.659Z,6588.00
2019-05-07T11:30:35.516Z,6676.00
2019-05-07T11:31:35.208Z,6728.00
2019-05-07T11:32:35.190Z,6656.00
2019-05-07T11:33:35.285Z,6368.00
2019-05-07T11:34:35.227Z,6280.00
2019-05-07T11:35:35.176Z,6136.00
2019-05-07T11:36:35.292Z,6020.00
2019-05-07T11:37:35.152Z,5564.00
2019-05-07T11:38:35.117Z,5684.00
2019-05-07T11:39:35.126Z,5712.00
2019-05-07T11:40:35.115Z,5644.00
2019-05-07T11:41:35.088Z,5088.00
2019-05-07T11:42:35.091Z,5384.00
2019-05-07T11:43:35.077Z,5264.00
2019-05-07T11:44:35.063Z,5016.00
2019-05-07T11:45:35.065Z,4900.00
2019-05-07T11:46:35.047Z,5084.00
2019-05-07T11:47:35.026Z,4664.00
2019-05-07T11:48:36.436Z,5048.00
2019-05-07T11:49:34.996Z,5072.00
2019-05-07T11:50:34.995Z,5120.00
2019-05-07T11:51:35.046Z,5088.00
2019-05-07T11:52:35.837Z,5072.00
2019-05-07T11:53:34.957Z,4968.00
2019-05-07T11:54:34.975Z,4920.00
2019-05-07T11:55:35.093Z,4884.00
2019-05-07T11:56:34.935Z,4840.00
2019-05-07T11:57:34.923Z,4880.00
2019-05-07T11:58:34.895Z,4848.00
2019-05-07T11:59:34.908Z,4828.00
2019-05-07T12:00:34.893Z,4852.00
2019-05-07T12:01:46.738Z,4904.00
2019-05-07T12:02:35.863Z,5012.00
2019-05-07T12:03:34.853Z,4984.00
2019-05-07T12:04:34.849Z,4988.00
2019-05-07T12:05:34.865Z,4892.00
2019-05-07T12:06:34.907Z,4928.00
2019-05-07T12:07:34.827Z,4940.00
2019-05-07T12:08:42.941Z,5052.00
2019-05-07T12:09:35.814Z,5104.00
2019-05-07T12:10:34.765Z,4356.00
2019-05-07T12:11:34.745Z,4244.00
2019-05-07T12:12:34.847Z,4180.00
2019-05-07T12:13:34.744Z,4344.00
2019-05-07T12:14:35.125Z,4580.00
2019-05-07T12:15:34.707Z,4988.00
2019-05-07T12:16:34.744Z,5528.00
2019-05-07T12:17:34.796Z,5172.00
2019-05-07T12:18:34.707Z,4884.00
2019-05-07T12:19:34.676Z,5088.00
2019-05-07T12:20:34.795Z,5096.00
2019-05-07T12:21:34.653Z,5216.00
2019-05-07T12:22:34.668Z,5284.00
2019-05-07T12:23:34.621Z,5472.00
2019-05-07T12:24:34.646Z,5624.00
2019-05-07T12:25:34.647Z,5628.00